Time;durP1;ratioP1;P1;durP2;ratioP2;P2;SDS_P1;SDS_P2;PMS_P1;PMS_P2;Temp;Humidity;BMP_temperature;BMP_pressure;BME280_temperature;BME280_humidity;BME280_pressure;Samples;Min_cycle;Max_cycle;Signal;HPM_P1;HPM_P2
2022/07/17 00:01:21;;;;;;;1.50;1.30;;;13.10;99.90;;;;;;7375882;19;20336;-76
2022/07/17 00:03:46;;;;;;;1.48;1.30;;;13.10;99.90;;;;;;7380681;19;20345;-76
2022/07/17 00:06:13;;;;;;;1.77;1.23;;;13.00;99.90;;;;;;7380122;19;20348;-76
2022/07/17 00:08:38;;;;;;;1.75;1.40;;;13.00;99.90;;;;;;7379076;19;20325;-77
2022/07/17 00:11:04;;;;;;;2.20;1.50;;;13.00;99.90;;;;;;7376119;19;20356;-76
2022/07/17 00:13:29;;;;;;;1.13;1.00;;;12.90;99.90;;;;;;7378030;19;20332;-76
2022/07/17 00:15:55;;;;;;;3.27;1.10;;;12.90;99.90;;;;;;7378004;19;20356;-76
2022/07/17 00:18:20;;;;;;;1.85;1.20;;;12.90;99.90;;;;;;7381790;19;20845;-77
2022/07/17 00:20:46;;;;;;;1.77;1.20;;;12.80;99.90;;;;;;7372223;19;20374;-77
2022/07/17 00:23:12;;;;;;;2.40;1.20;;;12.80;99.90;;;;;;7379000;19;20348;-76
2022/07/17 00:25:37;;;;;;;1.30;1.10;;;12.80;99.90;;;;;;7380038;19;20949;-76
2022/07/17 00:28:03;;;;;;;0.90;0.90;;;12.70;99.90;;;;;;7378486;19;20411;-76
2022/07/17 00:30:29;;;;;;;1.13;1.00;;;12.70;99.90;;;;;;7375742;19;20904;-76
2022/07/17 00:32:54;;;;;;;2.25;1.23;;;12.60;99.90;;;;;;7378535;19;20352;-76
2022/07/17 00:35:20;;;;;;;2.20;1.40;;;12.60;99.90;;;;;;7376797;19;20368;-76
2022/07/17 00:37:46;;;;;;;1.42;0.90;;;12.50;99.90;;;;;;7380426;19;20352;-76
2022/07/17 00:40:14;;;;;;;1.45;1.10;;;12.50;99.90;;;;;;7373603;19;20353;-76
2022/07/17 00:42:40;;;;;;;2.00;1.17;;;12.40;99.90;;;;;;7378756;19;20409;-77
2022/07/17 00:45:07;;;;;;;1.57;1.03;;;12.40;99.90;;;;;;7378061;19;20401;-76
2022/07/17 00:47:33;;;;;;;1.15;1.00;;;12.30;99.90;;;;;;7378928;19;21066;-76
2022/07/17 00:49:58;;;;;;;1.67;1.00;;;12.30;99.90;;;;;;7373797;19;20456;-76
2022/07/17 00:52:24;;;;;;;1.38;1.13;;;12.30;99.90;;;;;;7378854;19;20392;-76
2022/07/17 00:54:49;;;;;;;2.40;1.33;;;12.30;99.90;;;;;;7378910;19;20359;-76
2022/07/17 00:57:15;;;;;;;2.10;1.10;;;12.20;99.90;;;;;;7377965;19;20832;-76
2022/07/17 00:59:41;;;;;;;1.27;1.10;;;12.10;99.90;;;;;;7374872;19;20360;-76
2022/07/17 01:02:08;;;;;;;2.33;1.40;;;12.10;99.90;;;;;;7377130;19;20352;-76
2022/07/17 01:04:34;;;;;;;2.30;1.30;;;12.10;99.90;;;;;;7382317;19;20366;-76
2022/07/17 01:07:00;;;;;;;1.10;0.93;;;12.10;99.90;;;;;;7384199;19;20352;-76
2022/07/17 01:09:26;;;;;;;1.30;1.20;;;12.10;99.90;;;;;;7383243;19;20316;-76
2022/07/17 01:11:52;;;;;;;1.67;1.30;;;12.10;99.90;;;;;;7385288;19;20329;-76
2022/07/17 01:14:18;;;;;;;1.23;1.13;;;12.10;99.90;;;;;;7383606;19;20328;-76
2022/07/17 01:16:43;;;;;;;0.93;0.93;;;12.10;99.90;;;;;;7382956;19;20404;-76
2022/07/17 01:19:10;;;;;;;1.00;1.00;;;12.00;99.90;;;;;;7382203;19;20340;-76
2022/07/17 01:21:39;;;;;;;1.10;1.10;;;12.00;99.90;;;;;;7383138;19;20421;-76
2022/07/17 01:24:05;;;;;;;1.80;1.30;;;11.90;99.90;;;;;;7384769;19;20416;-76
2022/07/17 01:26:31;;;;;;;1.50;1.40;;;11.90;99.90;;;;;;7382439;19;20440;-76
2022/07/17 01:28:56;;;;;;;1.90;1.20;;;11.90;99.90;;;;;;7384712;19;20345;-76
2022/07/17 01:31:22;;;;;;;1.70;1.30;;;11.90;99.90;;;;;;7380299;19;20730;-76
2022/07/17 01:33:48;;;;;;;1.43;1.20;;;11.90;99.90;;;;;;7384100;19;20356;-77
2022/07/17 01:36:14;;;;;;;1.10;1.00;;;11.80;99.90;;;;;;7382474;19;20362;-76
2022/07/17 01:38:39;;;;;;;1.73;1.10;;;11.80;99.90;;;;;;7381829;19;20367;-76
2022/07/17 01:41:05;;;;;;;1.30;1.13;;;11.80;99.90;;;;;;7375219;19;20348;-76
2022/07/17 01:43:31;;;;;;;1.17;1.08;;;11.80;99.90;;;;;;7385276;19;20880;-76
2022/07/17 01:45:56;;;;;;;2.13;1.30;;;11.70;99.90;;;;;;7384267;19;20384;-76
2022/07/17 01:48:26;;;;;;;1.97;1.33;;;11.70;99.90;;;;;;7385967;19;20331;-76
2022/07/17 01:50:52;;;;;;;1.38;1.20;;;11.70;99.90;;;;;;7380508;19;20900;-76
2022/07/17 01:53:17;;;;;;;2.20;1.27;;;11.60;99.90;;;;;;7387789;19;20398;-76
2022/07/17 01:55:43;;;;;;;1.23;1.15;;;11.60;99.90;;;;;;7383648;19;20336;-76
2022/07/17 01:58:08;;;;;;;2.20;1.37;;;11.50;99.90;;;;;;7384818;19;20356;-76
2022/07/17 02:00:34;;;;;;;2.30;1.40;;;11.50;99.90;;;;;;7380595;19;20339;-76
2022/07/17 02:02:59;;;;;;;3.13;1.40;;;11.40;99.90;;;;;;7386050;19;20360;-76
2022/07/17 02:05:25;;;;;;;2.87;1.30;;;11.40;99.90;;;;;;7385032;19;20324;-76
2022/07/17 02:07:51;;;;;;;2.10;1.30;;;11.30;99.90;;;;;;7385136;19;20352;-76
2022/07/17 02:10:16;;;;;;;2.33;1.37;;;11.40;99.90;;;;;;7381791;19;20316;-76
2022/07/17 02:12:45;;;;;;;2.00;1.20;;;11.50;99.90;;;;;;7385460;19;20347;-76
2022/07/17 02:15:10;;;;;;;2.60;1.20;;;11.40;99.90;;;;;;7380957;19;20356;-76
2022/07/17 02:17:37;;;;;;;2.28;1.38;;;11.40;99.90;;;;;;7383739;19;20345;-76
2022/07/17 02:20:03;;;;;;;1.17;1.08;;;11.40;99.90;;;;;;7382835;19;20349;-76
2022/07/17 02:22:29;;;;;;;2.70;1.20;;;11.40;99.90;;;;;;7384900;19;20312;-76
2022/07/17 02:24:55;;;;;;;1.50;1.10;;;11.40;99.90;;;;;;7383268;19;20327;-76
2022/07/17 02:27:20;;;;;;;3.60;1.40;;;11.40;99.90;;;;;;7385142;19;20371;-76
2022/07/17 02:29:46;;;;;;;1.20;1.10;;;11.30;99.90;;;;;;7381095;19;20347;-76
2022/07/17 02:32:11;;;;;;;1.88;1.15;;;11.30;99.90;;;;;;7383136;19;20355;-76
2022/07/17 02:34:37;;;;;;;1.83;1.20;;;11.20;99.90;;;;;;7385103;19;20380;-76
2022/07/17 02:37:02;;;;;;;1.40;1.30;;;11.10;99.90;;;;;;7381884;19;20362;-76
2022/07/17 02:39:28;;;;;;;1.80;1.20;;;11.10;99.90;;;;;;7380812;19;20399;-76
2022/07/17 02:41:54;;;;;;;1.53;1.30;;;11.10;99.90;;;;;;7383252;19;20344;-76
2022/07/17 02:44:19;;;;;;;2.00;1.17;;;11.00;99.90;;;;;;7385219;19;20305;-76
2022/07/17 02:46:45;;;;;;;2.67;1.30;;;10.90;99.90;;;;;;7383852;19;20343;-76
2022/07/17 02:49:10;;;;;;;1.33;1.20;;;10.90;99.90;;;;;;7382675;19;20337;-76
2022/07/17 02:51:36;;;;;;;4.63;1.50;;;10.90;99.90;;;;;;7381585;19;20392;-76
2022/07/17 02:54:01;;;;;;;1.40;1.30;;;10.90;99.90;;;;;;7383746;19;20761;-76
2022/07/17 02:56:27;;;;;;;1.87;1.27;;;10.80;99.90;;;;;;7382575;19;20340;-76
2022/07/17 02:58:52;;;;;;;2.28;1.45;;;10.80;99.90;;;;;;7383323;19;20348;-76
2022/07/17 03:01:18;;;;;;;1.23;1.13;;;10.80;99.90;;;;;;7378016;19;20317;-76
2022/07/17 03:03:44;;;;;;;1.33;1.23;;;10.70;99.90;;;;;;7370838;19;20324;-76
2022/07/17 03:06:09;;;;;;;1.70;1.27;;;10.70;99.90;;;;;;7379561;19;20373;-76
2022/07/17 03:08:35;;;;;;;1.80;1.40;;;10.70;99.90;;;;;;7379794;19;20880;-76
2022/07/17 03:11:00;;;;;;;3.20;1.20;;;10.60;99.90;;;;;;7378524;19;20468;-76
2022/07/17 03:13:26;;;;;;;5.23;1.40;;;10.60;99.90;;;;;;7382037;19;20788;-76
2022/07/17 03:15:51;;;;;;;1.55;1.30;;;10.60;99.90;;;;;;7380989;19;20312;-76
2022/07/17 03:18:17;;;;;;;1.67;1.27;;;10.60;99.90;;;;;;7380222;19;20311;-75
2022/07/17 03:20:43;;;;;;;3.03;1.70;;;10.60;99.90;;;;;;7383277;19;20356;-76
2022/07/17 03:23:08;;;;;;;2.00;1.27;;;10.60;99.90;;;;;;7381727;19;20441;-76
2022/07/17 03:25:34;;;;;;;2.00;1.37;;;10.60;99.90;;;;;;7382121;19;20663;-75
2022/07/17 03:27:59;;;;;;;2.00;1.30;;;10.60;99.90;;;;;;7378562;19;20360;-76
2022/07/17 03:30:25;;;;;;;2.03;1.60;;;10.60;99.90;;;;;;7379621;19;20362;-76
2022/07/17 03:32:50;;;;;;;2.00;1.20;;;10.70;99.90;;;;;;7383671;19;20345;-76
2022/07/17 03:35:16;;;;;;;1.33;1.20;;;10.60;99.90;;;;;;7382041;19;20413;-76
2022/07/17 03:37:44;;;;;;;1.40;1.30;;;10.60;99.90;;;;;;7381673;19;20325;-76
2022/07/17 03:40:10;;;;;;;2.85;1.58;;;10.60;99.90;;;;;;7380729;19;20383;-77
2022/07/17 03:42:35;;;;;;;1.48;1.38;;;10.60;99.90;;;;;;7381548;19;20356;-76
2022/07/17 03:45:01;;;;;;;1.57;1.30;;;10.70;99.90;;;;;;7380688;19;20334;-76
2022/07/17 03:47:27;;;;;;;2.10;1.50;;;10.70;99.90;;;;;;7379679;19;20400;-76
2022/07/17 03:49:52;;;;;;;1.30;1.20;;;10.70;99.90;;;;;;7379963;19;20360;-76
2022/07/17 03:52:18;;;;;;;1.58;1.33;;;10.80;99.90;;;;;;7383279;19;21313;-76
2022/07/17 03:54:43;;;;;;;3.40;1.50;;;10.80;99.90;;;;;;7381349;19;20361;-76
2022/07/17 03:57:12;;;;;;;1.35;1.17;;;10.80;99.90;;;;;;7378780;19;22293;-76
2022/07/17 03:59:38;;;;;;;2.50;1.30;;;10.80;99.90;;;;;;7380294;19;20340;-76
2022/07/17 04:02:03;;;;;;;4.72;1.40;;;10.80;99.90;;;;;;7379241;19;20974;-76
2022/07/17 04:04:29;;;;;;;1.40;1.30;;;10.80;99.90;;;;;;7382318;19;20423;-77
2022/07/17 04:06:54;;;;;;;1.53;1.40;;;10.80;99.90;;;;;;7381217;19;20890;-76
2022/07/17 04:09:20;;;;;;;2.22;1.42;;;10.80;99.90;;;;;;7378377;19;20320;-76
2022/07/17 04:11:46;;;;;;;2.67;1.40;;;10.90;99.90;;;;;;7379716;19;20714;-77
2022/07/17 04:14:11;;;;;;;2.40;1.45;;;10.90;99.90;;;;;;7381945;19;20389;-76
2022/07/17 04:16:37;;;;;;;3.03;1.30;;;10.80;99.90;;;;;;7378629;19;20400;-76
2022/07/17 04:19:03;;;;;;;2.27;1.57;;;10.90;99.90;;;;;;7379570;19;20424;-76
2022/07/17 04:21:28;;;;;;;1.92;1.40;;;10.90;99.90;;;;;;7378849;19;20317;-77
2022/07/17 04:23:54;;;;;;;3.43;1.60;;;10.90;99.90;;;;;;7382524;19;21180;-76
2022/07/17 04:26:19;;;;;;;1.30;1.20;;;10.90;99.90;;;;;;7379139;19;20369;-76
2022/07/17 04:28:46;;;;;;;1.83;1.43;;;11.00;99.90;;;;;;7377482;19;20375;-76
2022/07/17 04:31:11;;;;;;;1.40;1.10;;;11.00;99.90;;;;;;7378455;19;20341;-77
2022/07/17 04:33:37;;;;;;;1.52;1.20;;;11.10;99.90;;;;;;7380360;19;20334;-76
2022/07/17 04:36:03;;;;;;;1.83;1.37;;;11.10;99.90;;;;;;7378910;19;20876;-76
2022/07/17 04:38:29;;;;;;;1.60;1.48;;;11.20;99.90;;;;;;7376318;19;20336;-76
2022/07/17 04:40:54;;;;;;;3.03;1.40;;;11.30;99.90;;;;;;7378706;19;20344;-77
2022/07/17 04:43:20;;;;;;;1.70;1.33;;;11.30;99.90;;;;;;7378477;19;20574;-77
2022/07/17 04:45:45;;;;;;;1.60;1.40;;;11.40;99.90;;;;;;7380944;19;20305;-77
2022/07/17 04:48:11;;;;;;;1.47;1.37;;;11.40;99.90;;;;;;7376678;19;20353;-76
2022/07/17 04:50:36;;;;;;;2.90;1.30;;;11.50;99.90;;;;;;7379258;19;20360;-77
2022/07/17 04:53:02;;;;;;;2.27;1.43;;;11.50;99.90;;;;;;7379866;19;20316;-77
2022/07/17 04:55:28;;;;;;;1.67;1.30;;;11.60;99.90;;;;;;7377746;19;20342;-77
2022/07/17 04:57:53;;;;;;;3.63;1.40;;;11.70;99.90;;;;;;7375787;19;20336;-77
2022/07/17 05:00:19;;;;;;;1.40;1.30;;;11.80;99.90;;;;;;7375523;19;20372;-77
2022/07/17 05:02:45;;;;;;;2.67;1.35;;;11.80;99.90;;;;;;7380362;19;20329;-77
2022/07/17 05:05:11;;;;;;;1.37;1.27;;;11.90;99.90;;;;;;7379715;19;20865;-77
2022/07/17 05:07:36;;;;;;;1.90;1.63;;;11.90;99.90;;;;;;7375714;19;20320;-76
2022/07/17 05:10:03;;;;;;;1.60;1.50;;;12.00;99.90;;;;;;7378306;19;20336;-76
2022/07/17 05:12:29;;;;;;;2.45;1.45;;;12.10;99.90;;;;;;7379211;19;20331;-77
2022/07/17 05:14:55;;;;;;;2.70;1.57;;;12.10;99.90;;;;;;7378904;19;20353;-76
2022/07/17 05:17:20;;;;;;;1.65;1.40;;;12.20;99.90;;;;;;7377335;19;20675;-77
2022/07/17 05:19:46;;;;;;;3.57;1.50;;;12.30;99.90;;;;;;7377122;19;20340;-76
2022/07/17 05:22:11;;;;;;;3.30;1.30;;;12.30;99.90;;;;;;7379819;19;20375;-77
2022/07/17 05:24:37;;;;;;;2.78;1.27;;;12.40;99.90;;;;;;7377710;19;20416;-77
2022/07/17 05:27:03;;;;;;;2.37;1.50;;;12.60;99.90;;;;;;7379739;19;20716;-77
2022/07/17 05:29:28;;;;;;;1.48;1.23;;;12.70;99.90;;;;;;7374670;19;20400;-77
2022/07/17 05:31:54;;;;;;;3.40;1.33;;;12.70;99.90;;;;;;7378455;19;20349;-77
2022/07/17 05:34:20;;;;;;;2.20;1.30;;;12.90;99.90;;;;;;7379965;19;20740;-77
2022/07/17 05:36:46;;;;;;;2.55;1.55;;;13.00;99.90;;;;;;7377151;19;20331;-77
2022/07/17 05:39:11;;;;;;;1.35;1.23;;;13.10;99.90;;;;;;7375526;19;20352;-76
2022/07/17 05:41:37;;;;;;;1.47;1.30;;;13.10;99.90;;;;;;7377696;19;20309;-77
2022/07/17 05:44:03;;;;;;;2.40;1.40;;;13.20;99.90;;;;;;7377588;19;20916;-77
2022/07/17 05:46:28;;;;;;;3.33;1.50;;;13.30;99.90;;;;;;7376409;19;20308;-77
2022/07/17 05:48:54;;;;;;;1.30;1.20;;;13.40;99.90;;;;;;7378296;19;20328;-77
2022/07/17 05:51:19;;;;;;;2.07;1.30;;;13.50;99.90;;;;;;7382663;19;20348;-77
2022/07/17 05:53:45;;;;;;;2.70;1.30;;;13.60;99.90;;;;;;7384975;19;20664;-76
2022/07/17 05:56:11;;;;;;;1.80;1.48;;;13.70;99.90;;;;;;7382065;19;20365;-78
2022/07/17 05:58:36;;;;;;;2.17;1.57;;;13.90;99.90;;;;;;7382865;19;20331;-77
2022/07/17 06:01:02;;;;;;;3.77;1.30;;;14.00;99.90;;;;;;7384522;19;20709;-77
2022/07/17 06:03:29;;;;;;;1.70;1.20;;;14.10;99.90;;;;;;7385798;19;20315;-77
2022/07/17 06:05:54;;;;;;;1.50;1.20;;;14.20;99.90;;;;;;7385016;19;20881;-77
2022/07/17 06:08:20;;;;;;;1.63;1.20;;;14.40;99.90;;;;;;7383349;19;20323;-76
2022/07/17 06:10:45;;;;;;;3.13;1.43;;;14.40;99.90;;;;;;7382689;19;22373;-77
2022/07/17 06:13:11;;;;;;;1.60;1.40;;;14.60;99.90;;;;;;7384503;19;20396;-77
2022/07/17 06:15:36;;;;;;;4.63;1.60;;;14.70;99.90;;;;;;7383184;19;20699;-77
2022/07/17 06:18:02;;;;;;;2.63;1.60;;;14.80;99.90;;;;;;7380994;19;20440;-77
2022/07/17 06:20:28;;;;;;;3.15;1.52;;;15.00;99.90;;;;;;7384770;19;20415;-77
2022/07/17 06:22:54;;;;;;;3.20;1.60;;;15.10;99.90;;;;;;7384666;19;20305;-77
2022/07/17 06:25:19;;;;;;;2.87;1.80;;;15.20;99.90;;;;;;7383450;19;20312;-77
2022/07/17 06:27:45;;;;;;;3.25;1.83;;;15.20;99.90;;;;;;7382122;19;20349;-77
2022/07/17 06:30:11;;;;;;;3.30;2.20;;;15.30;99.90;;;;;;7382889;19;20415;-77
2022/07/17 06:32:37;;;;;;;16.27;2.77;;;15.40;99.90;;;;;;7382827;19;20341;-77
2022/07/17 06:35:03;;;;;;;3.65;1.63;;;15.60;99.90;;;;;;7382224;19;20316;-77
2022/07/17 06:37:28;;;;;;;3.17;1.77;;;15.70;99.90;;;;;;7381033;19;21317;-77
2022/07/17 06:39:54;;;;;;;2.40;1.60;;;15.80;99.90;;;;;;7383898;19;20443;-77
2022/07/17 06:42:19;;;;;;;3.80;1.90;;;16.00;99.90;;;;;;7382163;19;20849;-77
2022/07/17 06:44:45;;;;;;;2.97;1.70;;;16.10;99.90;;;;;;7381742;19;20332;-77
2022/07/17 06:47:10;;;;;;;3.67;1.55;;;16.20;99.90;;;;;;7380825;19;20329;-77
2022/07/17 06:49:36;;;;;;;2.65;1.40;;;16.40;99.90;;;;;;7382736;19;20863;-77
2022/07/17 06:52:02;;;;;;;1.97;1.60;;;16.50;99.90;;;;;;7381642;19;20351;-77
2022/07/17 06:54:27;;;;;;;3.33;1.63;;;16.60;99.90;;;;;;7383551;19;20341;-77
2022/07/17 06:56:53;;;;;;;3.80;1.40;;;16.60;99.90;;;;;;7382162;19;20324;-82
2022/07/17 06:59:19;;;;;;;2.60;1.50;;;16.60;99.90;;;;;;7381747;19;20353;-77
2022/07/17 07:01:44;;;;;;;2.83;1.30;;;16.60;99.90;;;;;;7379324;19;20317;-77
2022/07/17 07:04:10;;;;;;;1.87;1.30;;;16.40;99.90;;;;;;7384469;19;20297;-78
2022/07/17 07:06:35;;;;;;;1.85;1.40;;;16.40;99.90;;;;;;7382855;19;20417;-77
2022/07/17 07:09:01;;;;;;;2.28;1.30;;;16.50;99.90;;;;;;7381294;19;20721;-77
2022/07/17 07:11:27;;;;;;;2.03;1.17;;;16.50;99.90;;;;;;7381788;19;20341;-77
2022/07/17 07:13:52;;;;;;;1.92;1.33;;;16.60;99.90;;;;;;7381515;19;20328;-77
2022/07/17 07:16:18;;;;;;;4.30;1.30;;;16.90;99.90;;;;;;7382226;19;20301;-77
2022/07/17 07:18:43;;;;;;;2.50;1.10;;;17.20;99.90;;;;;;7381216;19;20316;-77
2022/07/17 07:21:09;;;;;;;1.50;1.00;;;17.50;99.90;;;;;;7382789;19;20336;-77
2022/07/17 07:23:35;;;;;;;1.88;1.10;;;17.70;99.90;;;;;;7381079;19;20404;-77
2022/07/17 07:26:01;;;;;;;2.15;1.60;;;17.60;99.90;;;;;;7380113;19;20297;-77
2022/07/17 07:28:27;;;;;;;3.87;1.20;;;17.40;99.90;;;;;;7380581;19;20715;-78
2022/07/17 07:30:52;;;;;;;4.22;1.27;;;17.20;99.90;;;;;;7380953;19;20352;-76
2022/07/17 07:33:18;;;;;;;1.73;1.25;;;17.20;99.90;;;;;;7382427;19;20657;-76
2022/07/17 07:35:43;;;;;;;1.27;1.17;;;17.30;99.90;;;;;;7380629;19;20331;-76
2022/07/17 07:38:09;;;;;;;1.77;1.27;;;17.40;99.90;;;;;;7378312;19;20336;-76
2022/07/17 07:40:35;;;;;;;1.83;1.27;;;17.80;99.90;;;;;;7378756;19;20341;-76
2022/07/17 07:43:00;;;;;;;1.93;1.27;;;18.00;99.90;;;;;;7382129;19;20344;-76
2022/07/17 07:45:26;;;;;;;1.63;1.02;;;18.10;99.90;;;;;;7381866;19;20324;-75
2022/07/17 07:47:51;;;;;;;1.37;1.20;;;18.00;99.90;;;;;;7379675;19;20411;-75
2022/07/17 07:50:17;;;;;;;1.30;1.20;;;18.20;99.90;;;;;;7380215;19;20353;-75
2022/07/17 07:52:43;;;;;;;3.50;1.23;;;18.40;99.90;;;;;;7381336;19;20710;-76
2022/07/17 07:55:10;;;;;;;1.90;1.30;;;18.40;99.90;;;;;;7381577;19;20358;-76
2022/07/17 07:57:35;;;;;;;2.55;1.27;;;18.20;99.90;;;;;;7377514;19;20360;-77
2022/07/17 08:00:01;;;;;;;1.23;1.10;;;18.40;99.90;;;;;;7380370;19;20560;-76
2022/07/17 08:02:26;;;;;;;2.90;1.53;;;18.50;99.90;;;;;;7382984;19;20313;-76
2022/07/17 08:04:52;;;;;;;2.92;1.55;;;18.60;99.90;;;;;;7378940;19;22127;-75
2022/07/17 08:07:18;;;;;;;2.20;1.33;;;18.40;99.90;;;;;;7377281;19;20303;-76
2022/07/17 08:09:43;;;;;;;2.17;1.40;;;18.50;99.90;;;;;;7377125;19;20857;-76
2022/07/17 08:12:09;;;;;;;1.20;1.10;;;18.70;99.90;;;;;;7379578;19;20355;-76
2022/07/17 08:14:34;;;;;;;2.70;1.95;;;18.80;99.90;;;;;;7378772;19;20361;-76
2022/07/17 08:17:00;;;;;;;2.60;1.50;;;18.80;99.90;;;;;;7378912;19;20349;-76
2022/07/17 08:19:25;;;;;;;1.83;1.17;;;18.50;99.90;;;;;;7377772;19;20362;-76
2022/07/17 08:21:51;;;;;;;2.50;1.92;;;18.70;99.90;;;;;;7379822;19;20897;-76
2022/07/17 08:24:16;;;;;;;2.27;1.27;;;18.70;99.90;;;;;;7379313;19;20332;-76
2022/07/17 08:26:43;;;;;;;3.13;1.50;;;18.90;99.90;;;;;;7378547;19;20357;-76
2022/07/17 08:29:08;;;;;;;2.65;1.50;;;19.30;99.90;;;;;;7374069;19;20340;-76
2022/07/17 08:31:34;;;;;;;1.77;1.40;;;19.70;99.90;;;;;;7371266;19;20318;-77
2022/07/17 08:33:59;;;;;;;1.30;1.20;;;20.00;99.90;;;;;;7376884;19;20348;-76
2022/07/17 08:36:25;;;;;;;4.60;1.50;;;19.70;99.90;;;;;;7377506;19;20897;-76
2022/07/17 08:38:50;;;;;;;1.97;1.30;;;19.90;99.90;;;;;;7372310;19;20333;-76
2022/07/17 08:41:16;;;;;;;3.30;1.33;;;20.10;99.90;;;;;;7376601;19;20345;-75
2022/07/17 08:43:42;;;;;;;1.52;1.15;;;19.80;99.90;;;;;;7379746;19;20441;-76
2022/07/17 08:46:11;;;;;;;1.40;1.30;;;19.40;99.90;;;;;;7378057;19;20695;-75
2022/07/17 08:48:39;;;;;;;4.50;1.40;;;19.30;99.90;;;;;;7377053;19;20315;-77
2022/07/17 08:51:06;;;;;;;1.77;1.30;;;19.50;99.90;;;;;;7376272;19;20320;-76
2022/07/17 08:53:31;;;;;;;2.10;1.43;;;19.30;99.90;;;;;;7378046;19;20754;-76
2022/07/17 08:55:57;;;;;;;1.17;1.08;;;19.20;99.90;;;;;;7376502;19;20324;-76
2022/07/17 08:58:23;;;;;;;1.63;1.50;;;19.40;99.90;;;;;;7375746;19;20301;-76
2022/07/17 09:00:50;;;;;;;1.80;1.23;;;19.40;99.90;;;;;;7375130;19;21135;-76
2022/07/17 09:03:16;;;;;;;1.80;1.30;;;19.50;99.90;;;;;;7378755;19;20750;-76
2022/07/17 09:05:41;;;;;;;3.00;1.50;;;19.70;99.90;;;;;;7377396;19;20688;-76
2022/07/17 09:08:08;;;;;;;1.50;1.27;;;19.80;99.90;;;;;;7375660;19;20348;-76
2022/07/17 09:10:41;;;;;;;3.63;1.50;;;19.70;99.90;;;;;;7376969;19;20312;-76
2022/07/17 09:13:20;;;;;;;2.43;1.27;;;20.00;99.90;;;;;;7377533;19;20345;-76
2022/07/17 09:15:47;;;;;;;2.22;1.40;;;20.20;99.90;;;;;;7375398;19;20389;-76
2022/07/17 09:18:13;;;;;;;1.92;1.30;;;20.30;99.90;;;;;;7373038;19;20348;-77
2022/07/17 09:20:46;;;;;;;3.55;1.38;;;19.90;99.90;;;;;;7375154;19;20861;-76
2022/07/17 09:23:11;;;;;;;2.00;1.20;;;19.80;99.90;;;;;;7376970;19;20321;-76
2022/07/17 09:25:39;;;;;;;1.00;1.00;;;20.10;99.90;;;;;;7379299;19;20363;-76
2022/07/17 09:28:05;;;;;;;2.22;1.10;;;20.40;99.90;;;;;;7381282;19;20340;-76
2022/07/17 09:30:32;;;;;;;1.63;1.20;;;20.40;99.90;;;;;;7380673;19;20651;-76
2022/07/17 09:32:57;;;;;;;3.33;1.50;;;20.20;99.90;;;;;;7383378;19;20383;-76
2022/07/17 09:35:23;;;;;;;2.05;1.20;;;20.40;99.90;;;;;;7381438;19;20824;-75
2022/07/17 09:37:51;;;;;;;1.83;1.40;;;20.80;99.90;;;;;;7379774;19;20960;-77
2022/07/17 09:43:01;;;;;;;2.80;1.27;;;21.40;99.90;;;;;;7279815;19;2004802;-76
2022/07/17 09:45:27;;;;;;;1.30;1.20;;;21.80;99.90;;;;;;7381544;19;20813;-76
2022/07/17 09:47:53;;;;;;;2.97;1.50;;;22.00;99.90;;;;;;7379297;19;20896;-77
2022/07/17 09:50:18;;;;;;;1.70;1.30;;;22.30;99.90;;;;;;7379671;19;20304;-76
2022/07/17 09:52:44;;;;;;;3.70;1.53;;;22.30;99.30;;;;;;7381685;19;20345;-76
2022/07/17 09:55:09;;;;;;;1.92;1.40;;;22.60;99.90;;;;;;7379415;19;20345;-76
2022/07/17 09:57:35;;;;;;;2.15;1.20;;;22.50;99.90;;;;;;7378256;19;20351;-76
2022/07/17 10:00:05;;;;;;;2.00;1.27;;;22.30;99.20;;;;;;7380410;19;20335;-76
2022/07/17 10:02:44;;;;;;;1.60;1.40;;;22.40;99.20;;;;;;7379379;19;20403;-76
2022/07/17 10:05:15;;;;;;;2.67;1.52;;;22.80;98.00;;;;;;7377976;19;20697;-76
2022/07/17 10:07:47;;;;;;;1.60;1.20;;;22.90;99.80;;;;;;7381770;19;20343;-76
2022/07/17 10:10:13;;;;;;;1.63;1.15;;;23.10;98.40;;;;;;7378963;19;20363;-77
2022/07/17 10:12:41;;;;;;;1.77;1.20;;;23.60;97.40;;;;;;7381167;19;20680;-76
2022/07/17 10:15:07;;;;;;;1.40;1.30;;;23.40;97.50;;;;;;7379753;19;20317;-76
2022/07/17 10:17:33;;;;;;;2.40;1.30;;;23.40;96.00;;;;;;7378158;19;20316;-78
2022/07/17 10:19:59;;;;;;;2.20;1.17;;;23.50;96.60;;;;;;7379645;19;21007;-78
2022/07/17 10:22:24;;;;;;;3.77;1.40;;;22.60;94.40;;;;;;7380190;19;20328;-77
2022/07/17 10:24:52;;;;;;;2.05;1.20;;;22.70;95.60;;;;;;7380184;19;20858;-77
2022/07/17 10:27:27;;;;;;;2.00;1.33;;;22.80;96.20;;;;;;7380037;19;20324;-76
2022/07/17 10:30:00;;;;;;;1.00;1.00;;;23.20;95.30;;;;;;7378987;19;20362;-77
2022/07/17 10:32:25;;;;;;;2.25;1.40;;;23.20;95.90;;;;;;7381435;19;20305;-77
2022/07/17 10:35:10;;;;;;;1.90;1.20;;;23.70;94.20;;;;;;7380544;19;20948;-77
2022/07/17 10:37:35;;;;;;;1.50;1.38;;;23.20;93.40;;;;;;7274716;19;2005982;-77
2022/07/17 10:40:17;;;;;;;4.23;1.47;;;22.90;94.10;;;;;;7380472;19;20360;-77
2022/07/17 10:42:58;;;;;;;1.50;1.20;;;23.00;94.90;;;;;;7380459;19;20328;-77
2022/07/17 10:45:26;;;;;;;2.67;1.40;;;22.80;94.80;;;;;;7381935;19;20356;-76
2022/07/17 10:48:12;;;;;;;2.80;1.30;;;22.60;95.30;;;;;;7379974;19;20337;-78
2022/07/17 10:50:45;;;;;;;2.17;1.17;;;22.00;95.20;;;;;;7276082;19;2004473;-76
2022/07/17 10:53:10;;;;;;;1.85;1.45;;;22.00;96.80;;;;;;7381799;19;20416;-77
2022/07/17 10:55:38;;;;;;;3.00;1.30;;;22.20;97.10;;;;;;7380111;19;20455;-77
2022/07/17 10:58:07;;;;;;;1.52;1.20;;;22.50;96.40;;;;;;7374741;19;20301;-78
2022/07/17 11:00:33;;;;;;;2.60;1.17;;;22.90;97.10;;;;;;7377446;19;20347;-77
2022/07/17 11:03:10;;;;;;;2.10;1.40;;;22.90;97.10;;;;;;7382508;19;20301;-77
2022/07/17 11:05:36;;;;;;;5.03;1.80;;;22.10;95.80;;;;;;7380968;19;20308;-77
2022/07/17 11:08:03;;;;;;;3.23;1.50;;;21.80;96.40;;;;;;7379568;19;20747;-77
2022/07/17 11:10:29;;;;;;;1.80;1.20;;;21.50;96.10;;;;;;7380377;19;20698;-75
2022/07/17 11:12:55;;;;;;;1.27;1.17;;;21.80;98.40;;;;;;7382072;19;20300;-77
2022/07/17 11:15:21;;;;;;;1.45;1.20;;;21.60;96.80;;;;;;7382070;19;20644;-77
2022/07/17 11:17:48;;;;;;;1.92;1.17;;;22.40;97.10;;;;;;7378424;19;20366;-76
2022/07/17 11:20:13;;;;;;;2.40;1.20;;;23.20;96.00;;;;;;7379316;19;20776;-76
2022/07/17 11:22:39;;;;;;;1.87;1.37;;;23.20;94.60;;;;;;7381198;19;20312;-78
2022/07/17 11:25:05;;;;;;;3.20;1.10;;;23.80;94.70;;;;;;7377675;19;20810;-77
2022/07/17 11:27:31;;;;;;;3.57;1.43;;;24.30;93.50;;;;;;7378543;19;20328;-79
2022/07/17 11:29:59;;;;;;;1.30;1.20;;;24.30;93.30;;;;;;7379862;19;20351;-78
2022/07/17 11:32:27;;;;;;;1.30;1.17;;;24.80;91.90;;;;;;7381700;19;20726;-77
2022/07/17 11:34:53;;;;;;;1.37;1.10;;;25.40;90.10;;;;;;7381369;19;20332;-77
2022/07/17 11:37:19;;;;;;;1.38;1.27;;;25.40;90.40;;;;;;7376725;19;20830;-78
2022/07/17 11:39:46;;;;;;;2.87;1.17;;;25.70;90.80;;;;;;7379437;19;20336;-78
2022/07/17 11:42:16;;;;;;;1.80;1.13;;;25.70;86.80;;;;;;7380611;19;20340;-78
2022/07/17 11:44:43;;;;;;;3.58;1.20;;;24.80;82.60;;;;;;7378281;19;20316;-77
2022/07/17 11:47:09;;;;;;;3.13;1.23;;;25.10;90.10;;;;;;7381462;19;20352;-79
2022/07/17 11:49:40;;;;;;;1.67;1.10;;;25.10;87.30;;;;;;7378431;19;20382;-77
2022/07/17 11:52:10;;;;;;;2.92;1.50;;;25.80;88.20;;;;;;7380052;19;20317;-77
2022/07/17 11:54:51;;;;;;;1.43;1.20;;;25.80;86.60;;;;;;7380422;19;20312;-79
2022/07/17 11:57:18;;;;;;;1.95;0.93;;;24.70;81.60;;;;;;7377897;19;20325;-78
2022/07/17 11:59:43;;;;;;;3.00;1.77;;;25.30;86.10;;;;;;7379671;19;20332;-80
2022/07/17 12:02:17;;;;;;;2.45;1.20;;;25.50;91.20;;;;;;7381032;19;20313;-77
2022/07/17 12:04:53;;;;;;;1.80;1.20;;;25.60;86.40;;;;;;7380715;19;20328;-78
2022/07/17 12:07:20;;;;;;;1.80;1.13;;;26.10;86.60;;;;;;7378484;19;20319;-77
2022/07/17 12:09:46;;;;;;;2.97;1.13;;;26.60;85.70;;;;;;7378862;19;20332;-77
2022/07/17 12:12:24;;;;;;;2.42;1.00;;;27.20;84.20;;;;;;7380872;19;21308;-78
2022/07/17 12:14:58;;;;;;;1.77;1.00;;;26.70;77.90;;;;;;7379493;19;20328;-77
2022/07/17 12:17:24;;;;;;;1.17;1.05;;;26.90;78.20;;;;;;7378421;19;20316;-78
2022/07/17 12:19:50;;;;;;;2.40;1.30;;;27.10;77.70;;;;;;7377785;19;20930;-79
2022/07/17 12:22:16;;;;;;;2.13;1.25;;;26.80;78.10;;;;;;7380369;19;20357;-78
2022/07/17 12:24:43;;;;;;;1.08;0.98;;;27.20;80.40;;;;;;7378495;19;21281;-77
2022/07/17 12:27:11;;;;;;;1.77;1.30;;;27.80;77.30;;;;;;7378497;19;20608;-80
2022/07/17 12:29:36;;;;;;;2.00;1.10;;;28.30;73.00;;;;;;7378171;19;20771;-79
2022/07/17 12:32:10;;;;;;;1.63;1.10;;;28.60;69.70;;;;;;7379108;19;20346;-78
2022/07/17 12:34:36;;;;;;;1.83;1.20;;;28.50;71.90;;;;;;7380169;19;20352;-78
2022/07/17 12:37:03;;;;;;;1.20;1.10;;;29.00;72.50;;;;;;7378477;19;20340;-78
2022/07/17 12:39:28;;;;;;;1.63;1.30;;;28.00;68.20;;;;;;7378596;19;20344;-77
2022/07/17 12:41:54;;;;;;;1.98;1.00;;;27.70;66.60;;;;;;7378641;19;20317;-77
2022/07/17 12:44:19;;;;;;;4.00;1.20;;;27.90;68.10;;;;;;7379531;19;20403;-78